sensor_id;sensor_type;location;lat;lon;timestamp;pressure;altitude;pressure_sealevel;temperature;humidity
76108;BME280;64834;52.516;10.528;2024-02-21T00:04:27;101367.81;;;7.20;100.00
76108;BME280;64834;52.516;10.528;2024-02-21T00:22:55;101344.91;;;7.16;100.00
76108;BME280;64834;52.516;10.528;2024-02-21T00:25:21;101341.66;;;7.19;100.00
76108;BME280;64834;52.516;10.528;2024-02-21T00:27:46;101351.53;;;7.23;100.00
76108;BME280;64834;52.516;10.528;2024-02-21T00:30:11;101334.06;;;7.22;100.00
76108;BME280;64834;52.516;10.528;2024-02-21T00:32:37;101336.84;;;7.23;100.00
76108;BME280;64834;52.516;10.528;2024-02-21T00:35:02;101336.25;;;7.27;100.00
76108;BME280;64834;52.516;10.528;2024-02-21T00:37:28;101326.41;;;7.23;100.00
76108;BME280;64834;52.516;10.528;2024-02-21T00:39:56;101328.44;;;7.27;100.00
76108;BME280;64834;52.516;10.528;2024-02-21T00:42:21;101319.63;;;7.25;100.00
76108;BME280;64834;52.516;10.528;2024-02-21T00:44:47;101328.81;;;7.32;100.00
76108;BME280;64834;52.516;10.528;2024-02-21T00:47:12;101324.16;;;7.28;100.00
76108;BME280;64834;52.516;10.528;2024-02-21T00:49:37;101320.63;;;7.27;100.00
76108;BME280;64834;52.516;10.528;2024-02-21T00:52:03;101324.88;;;7.37;100.00
76108;BME280;64834;52.516;10.528;2024-02-21T00:54:28;101320.59;;;7.38;100.00
76108;BME280;64834;52.516;10.528;2024-02-21T00:56:53;101315.38;;;7.38;100.00
76108;BME280;64834;52.516;10.528;2024-02-21T00:59:19;101317.19;;;7.39;100.00
76108;BME280;64834;52.516;10.528;2024-02-21T01:01:44;101309.28;;;7.37;100.00
76108;BME280;64834;52.516;10.528;2024-02-21T01:04:09;101306.66;;;7.37;100.00
76108;BME280;64834;52.516;10.528;2024-02-21T01:06:35;101299.50;;;7.35;100.00
76108;BME280;64834;52.516;10.528;2024-02-21T01:09:00;101296.91;;;7.35;100.00
76108;BME280;64834;52.516;10.528;2024-02-21T01:11:26;101303.28;;;7.38;100.00
76108;BME280;64834;52.516;10.528;2024-02-21T01:13:51;101296.91;;;7.35;100.00
76108;BME280;64834;52.516;10.528;2024-02-21T01:16:16;101299.88;;;7.39;100.00
76108;BME280;64834;52.516;10.528;2024-02-21T01:18:42;101293.75;;;7.39;100.00
76108;BME280;64834;52.516;10.528;2024-02-21T01:21:07;101297.38;;;7.41;100.00
76108;BME280;64834;52.516;10.528;2024-02-21T01:23:34;101299.97;;;7.41;100.00
76108;BME280;64834;52.516;10.528;2024-02-21T01:26:00;101298.28;;;7.41;100.00
76108;BME280;64834;52.516;10.528;2024-02-21T01:28:25;101293.44;;;7.46;100.00
76108;BME280;64834;52.516;10.528;2024-02-21T01:30:50;101276.00;;;7.45;100.00
76108;BME280;64834;52.516;10.528;2024-02-21T01:33:17;101268.50;;;7.38;100.00
76108;BME280;64834;52.516;10.528;2024-02-21T01:35:42;101261.53;;;7.48;100.00
76108;BME280;64834;52.516;10.528;2024-02-21T01:38:07;101253.59;;;7.47;100.00
76108;BME280;64834;52.516;10.528;2024-02-21T01:40:33;101245.66;;;7.45;100.00
76108;BME280;64834;52.516;10.528;2024-02-21T01:42:58;101255.66;;;7.51;100.00
76108;BME280;64834;52.516;10.528;2024-02-21T01:45:23;101248.84;;;7.53;100.00
76108;BME280;64834;52.516;10.528;2024-02-21T01:47:49;101246.25;;;7.53;100.00
76108;BME280;64834;52.516;10.528;2024-02-21T01:50:16;101252.72;;;7.58;100.00
76108;BME280;64834;52.516;10.528;2024-02-21T01:52:43;101243.53;;;7.51;100.00
76108;BME280;64834;52.516;10.528;2024-02-21T01:55:11;101251.69;;;7.56;100.00
76108;BME280;64834;52.516;10.528;2024-02-21T01:57:39;101249.09;;;7.56;100.00
76108;BME280;64834;52.516;10.528;2024-02-21T02:00:05;101247.75;;;7.61;100.00
76108;BME280;64834;52.516;10.528;2024-02-21T02:02:31;101237.09;;;7.58;100.00
76108;BME280;64834;52.516;10.528;2024-02-21T02:04:56;101231.88;;;7.58;100.00
76108;BME280;64834;52.516;10.528;2024-02-21T02:07:22;101224.06;;;7.58;100.00
76108;BME280;64834;52.516;10.528;2024-02-21T02:09:47;101227.25;;;7.66;100.00
76108;BME280;64834;52.516;10.528;2024-02-21T02:12:16;101220.34;;;7.66;100.00
76108;BME280;64834;52.516;10.528;2024-02-21T02:14:41;101216.38;;;7.60;100.00
76108;BME280;64834;52.516;10.528;2024-02-21T02:17:07;101211.94;;;7.58;100.00
76108;BME280;64834;52.516;10.528;2024-02-21T02:19:32;101203.22;;;7.58;100.00
76108;BME280;64834;52.516;10.528;2024-02-21T02:22:13;101201.53;;;7.58;100.00
76108;BME280;64834;52.516;10.528;2024-02-21T02:24:42;101205.03;;;7.59;100.00
76108;BME280;64834;52.516;10.528;2024-02-21T02:27:08;101213.00;;;7.61;100.00
76108;BME280;64834;52.516;10.528;2024-02-21T02:29:33;101203.13;;;7.56;100.00
76108;BME280;64834;52.516;10.528;2024-02-21T02:31:59;101214.81;;;7.62;100.00
76108;BME280;64834;52.516;10.528;2024-02-21T02:34:24;101196.00;;;7.66;100.00
76108;BME280;64834;52.516;10.528;2024-02-21T02:36:49;101179.78;;;7.58;100.00
76108;BME280;64834;52.516;10.528;2024-02-21T02:39:15;101168.94;;;7.64;100.00
76108;BME280;64834;52.516;10.528;2024-02-21T02:41:40;101176.19;;;7.68;100.00
76108;BME280;64834;52.516;10.528;2024-02-21T02:44:05;101166.13;;;7.61;100.00
76108;BME280;64834;52.516;10.528;2024-02-21T02:46:31;101160.44;;;7.66;100.00
76108;BME280;64834;52.516;10.528;2024-02-21T02:48:56;101161.47;;;7.68;100.00
76108;BME280;64834;52.516;10.528;2024-02-21T02:51:21;101156.00;;;7.65;100.00
76108;BME280;64834;52.516;10.528;2024-02-21T02:53:47;101155.47;;;7.69;100.00
76108;BME280;64834;52.516;10.528;2024-02-21T02:56:15;101149.91;;;7.65;100.00
76108;BME280;64834;52.516;10.528;2024-02-21T02:58:42;101145.13;;;7.59;100.00
76108;BME280;64834;52.516;10.528;2024-02-21T03:01:08;101129.16;;;7.66;100.00
76108;BME280;64834;52.516;10.528;2024-02-21T03:03:34;101121.34;;;7.66;100.00
76108;BME280;64834;52.516;10.528;2024-02-21T03:05:59;101110.63;;;7.62;100.00
76108;BME280;64834;52.516;10.528;2024-02-21T03:08:24;101114.44;;;7.67;100.00
76108;BME280;64834;52.516;10.528;2024-02-21T03:10:50;101122.50;;;7.70;100.00
76108;BME280;64834;52.516;10.528;2024-02-21T03:13:15;101108.56;;;7.69;100.00
76108;BME280;64834;52.516;10.528;2024-02-21T03:15:40;101104.38;;;7.71;100.00
76108;BME280;64834;52.516;10.528;2024-02-21T03:18:06;101095.66;;;7.71;100.00
76108;BME280;64834;52.516;10.528;2024-02-21T03:20:31;101087.50;;;7.66;100.00
76108;BME280;64834;52.516;10.528;2024-02-21T03:22:57;101086.59;;;7.66;100.00
76108;BME280;64834;52.516;10.528;2024-02-21T03:25:22;101092.25;;;7.72;100.00
76108;BME280;64834;52.516;10.528;2024-02-21T03:27:48;101094.31;;;7.64;100.00
76108;BME280;64834;52.516;10.528;2024-02-21T03:30:13;101098.72;;;7.65;100.00
76108;BME280;64834;52.516;10.528;2024-02-21T03:32:38;101085.13;;;7.69;100.00
76108;BME280;64834;52.516;10.528;2024-02-21T03:35:04;101075.16;;;7.64;100.00
76108;BME280;64834;52.516;10.528;2024-02-21T03:37:30;101071.56;;;7.62;100.00
76108;BME280;64834;52.516;10.528;2024-02-21T03:39:55;101076.75;;;7.62;100.00
76108;BME280;64834;52.516;10.528;2024-02-21T03:42:20;101070.41;;;7.70;100.00
76108;BME280;64834;52.516;10.528;2024-02-21T03:44:46;101056.38;;;7.68;100.00
76108;BME280;64834;52.516;10.528;2024-02-21T03:47:11;101043.66;;;7.72;100.00
76108;BME280;64834;52.516;10.528;2024-02-21T03:49:37;101067.00;;;7.71;100.00
76108;BME280;64834;52.516;10.528;2024-02-21T03:52:03;101056.38;;;7.68;100.00
76108;BME280;64834;52.516;10.528;2024-02-21T03:54:31;101065.31;;;7.71;100.00
76108;BME280;64834;52.516;10.528;2024-02-21T03:56:56;101061.34;;;7.76;100.00
76108;BME280;64834;52.516;10.528;2024-02-21T03:59:22;101070.84;;;7.76;100.00
76108;BME280;64834;52.516;10.528;2024-02-21T04:01:51;101075.16;;;7.75;100.00
76108;BME280;64834;52.516;10.528;2024-02-21T04:04:17;101084.69;;;7.75;100.00
76108;BME280;64834;52.516;10.528;2024-02-21T04:06:49;101075.38;;;7.67;100.00
76108;BME280;64834;52.516;10.528;2024-02-21T04:09:14;101083.44;;;7.70;100.00
76108;BME280;64834;52.516;10.528;2024-02-21T04:11:39;101088.84;;;7.73;100.00
76108;BME280;64834;52.516;10.528;2024-02-21T04:14:05;101093.59;;;7.78;100.00
76108;BME280;64834;52.516;10.528;2024-02-21T04:16:30;101081.97;;;7.73;100.00
76108;BME280;64834;52.516;10.528;2024-02-21T04:18:55;101083.19;;;7.78;100.00
76108;BME280;64834;52.516;10.528;2024-02-21T04:21:21;101077.06;;;7.78;100.00
76108;BME280;64834;52.516;10.528;2024-02-21T04:23:46;101071.75;;;7.76;100.00
76108;BME280;64834;52.516;10.528;2024-02-21T04:26:11;101078.88;;;7.79;100.00
76108;BME280;64834;52.516;10.528;2024-02-21T04:28:37;101071.19;;;7.80;100.00
76108;BME280;64834;52.516;10.528;2024-02-21T04:31:02;101062.13;;;7.75;100.00
76108;BME280;64834;52.516;10.528;2024-02-21T04:33:27;101066.88;;;7.81;100.00
76108;BME280;64834;52.516;10.528;2024-02-21T04:35:53;101068.69;;;7.82;100.00
76108;BME280;64834;52.516;10.528;2024-02-21T04:38:20;101067.44;;;7.77;100.00
76108;BME280;64834;52.516;10.528;2024-02-21T04:40:45;101080.34;;;7.87;100.00
76108;BME280;64834;52.516;10.528;2024-02-21T04:43:10;101095.84;;;7.85;100.00
76108;BME280;64834;52.516;10.528;2024-02-21T04:45:38;101077.31;;;7.81;100.00
76108;BME280;64834;52.516;10.528;2024-02-21T04:48:03;101103.81;;;7.87;100.00
76108;BME280;64834;52.516;10.528;2024-02-21T04:50:29;101091.78;;;7.89;100.00
76108;BME280;64834;52.516;10.528;2024-02-21T04:52:54;101092.25;;;7.83;100.00
76108;BME280;64834;52.516;10.528;2024-02-21T04:55:20;101091.59;;;7.86;100.00
76108;BME280;64834;52.516;10.528;2024-02-21T04:57:45;101092.34;;;7.85;100.00
76108;BME280;64834;52.516;10.528;2024-02-21T05:00:11;101074.72;;;7.81;100.00
76108;BME280;64834;52.516;10.528;2024-02-21T05:02:36;101085.13;;;7.81;100.00
76108;BME280;64834;52.516;10.528;2024-02-21T05:05:01;101066.09;;;7.82;100.00
76108;BME280;64834;52.516;10.528;2024-02-21T05:07:27;101083.16;;;7.90;100.00
76108;BME280;64834;52.516;10.528;2024-02-21T05:09:53;101070.75;;;7.86;100.00
76108;BME280;64834;52.516;10.528;2024-02-21T05:12:18;101065.72;;;7.89;100.00
76108;BME280;64834;52.516;10.528;2024-02-21T05:14:43;101067.44;;;7.89;100.00
76108;BME280;64834;52.516;10.528;2024-02-21T05:17:09;101068.44;;;7.91;100.00
76108;BME280;64834;52.516;10.528;2024-02-21T05:19:34;101074.09;;;7.85;100.00
76108;BME280;64834;52.516;10.528;2024-02-21T05:21:59;101064.72;;;7.87;100.00
76108;BME280;64834;52.516;10.528;2024-02-21T05:24:25;101054.59;;;7.92;100.00
76108;BME280;64834;52.516;10.528;2024-02-21T05:26:51;101050.91;;;7.88;100.00
76108;BME280;64834;52.516;10.528;2024-02-21T05:29:16;101056.00;;;7.87;100.00
76108;BME280;64834;52.516;10.528;2024-02-21T05:34:17;101039.78;;;7.91;100.00
76108;BME280;64834;52.516;10.528;2024-02-21T05:36:42;101050.44;;;7.94;100.00
76108;BME280;64834;52.516;10.528;2024-02-21T05:39:07;101046.94;;;7.93;100.00
76108;BME280;64834;52.516;10.528;2024-02-21T05:41:32;101041.81;;;7.95;100.00
76108;BME280;64834;52.516;10.528;2024-02-21T05:43:58;101036.38;;;7.92;100.00
76108;BME280;64834;52.516;10.528;2024-02-21T05:46:23;101018.94;;;7.91;100.00
76108;BME280;64834;52.516;10.528;2024-02-21T05:48:49;101025.66;;;7.87;100.00
76108;BME280;64834;52.516;10.528;2024-02-21T05:51:14;101027.44;;;7.88;100.00
76108;BME280;64834;52.516;10.528;2024-02-21T05:53:40;101030.25;;;7.91;100.00
76108;BME280;64834;52.516;10.528;2024-02-21T05:56:13;101024.75;;;7.87;100.00
76108;BME280;64834;52.516;10.528;2024-02-21T05:58:39;101032.22;;;7.82;100.00
76108;BME280;64834;52.516;10.528;2024-02-21T06:01:04;101029.72;;;7.83;100.00
76108;BME280;64834;52.516;10.528;2024-02-21T06:03:32;101029.38;;;7.79;100.00
76108;BME280;64834;52.516;10.528;2024-02-21T06:05:57;101039.69;;;7.77;100.00
76108;BME280;64834;52.516;10.528;2024-02-21T06:08:23;101030.97;;;7.77;100.00
76108;BME280;64834;52.516;10.528;2024-02-21T06:10:48;101034.84;;;7.70;100.00
76108;BME280;64834;52.516;10.528;2024-02-21T06:13:14;101035.09;;;7.73;100.00
76108;BME280;64834;52.516;10.528;2024-02-21T06:15:40;101019.91;;;7.68;100.00
76108;BME280;64834;52.516;10.528;2024-02-21T06:18:05;101026.66;;;7.77;100.00
76108;BME280;64834;52.516;10.528;2024-02-21T06:20:31;101034.28;;;7.74;100.00
76108;BME280;64834;52.516;10.528;2024-02-21T06:22:57;101025.09;;;7.79;100.00
76108;BME280;64834;52.516;10.528;2024-02-21T06:25:22;101024.06;;;7.77;100.00
76108;BME280;64834;52.516;10.528;2024-02-21T06:27:47;101023.41;;;7.80;100.00
76108;BME280;64834;52.516;10.528;2024-02-21T06:30:13;101023.88;;;7.74;100.00
76108;BME280;64834;52.516;10.528;2024-02-21T06:32:38;101029.72;;;7.83;100.00
76108;BME280;64834;52.516;10.528;2024-02-21T06:35:04;101023.25;;;7.78;100.00
76108;BME280;64834;52.516;10.528;2024-02-21T06:37:30;101027.81;;;7.81;100.00
76108;BME280;64834;52.516;10.528;2024-02-21T06:39:57;101032.31;;;7.83;100.00
76108;BME280;64834;52.516;10.528;2024-02-21T06:42:24;101024.59;;;7.85;100.00
76108;BME280;64834;52.516;10.528;2024-02-21T06:44:49;101023.50;;;7.81;100.00
76108;BME280;64834;52.516;10.528;2024-02-21T06:47:15;101024.50;;;7.83;100.00
76108;BME280;64834;52.516;10.528;2024-02-21T06:49:40;101028.72;;;7.81;100.00
76108;BME280;64834;52.516;10.528;2024-02-21T06:52:06;101027.72;;;7.79;100.00
76108;BME280;64834;52.516;10.528;2024-02-21T06:54:32;101034.50;;;7.77;100.00
76108;BME280;64834;52.516;10.528;2024-02-21T06:56:57;101027.94;;;7.71;100.00
76108;BME280;64834;52.516;10.528;2024-02-21T06:59:23;101029.19;;;7.64;100.00
76108;BME280;64834;52.516;10.528;2024-02-21T07:01:49;101030.56;;;7.59;100.00
76108;BME280;64834;52.516;10.528;2024-02-21T07:04:14;101024.44;;;7.58;100.00
76108;BME280;64834;52.516;10.528;2024-02-21T07:06:40;101017.88;;;7.52;100.00
76108;BME280;64834;52.516;10.528;2024-02-21T07:09:06;101012.56;;;7.50;100.00
76108;BME280;64834;52.516;10.528;2024-02-21T07:11:31;101004.75;;;7.50;100.00
76108;BME280;64834;52.516;10.528;2024-02-21T07:13:56;101016.88;;;7.50;100.00
76108;BME280;64834;52.516;10.528;2024-02-21T07:16:21;101018.44;;;7.48;100.00
76108;BME280;64834;52.516;10.528;2024-02-21T07:18:47;101018.78;;;7.52;100.00
76108;BME280;64834;52.516;10.528;2024-02-21T07:21:12;101019.03;;;7.55;100.00
76108;BME280;64834;52.516;10.528;2024-02-21T07:23:43;101030.34;;;7.56;100.00
76108;BME280;64834;52.516;10.528;2024-02-21T07:26:08;101023.53;;;7.58;100.00
76108;BME280;64834;52.516;10.528;2024-02-21T07:28:34;101022.63;;;7.57;100.00
76108;BME280;64834;52.516;10.528;2024-02-21T07:30:59;101026.38;;;7.61;100.00
76108;BME280;64834;52.516;10.528;2024-02-21T07:33:25;101019.47;;;7.62;100.00
76108;BME280;64834;52.516;10.528;2024-02-21T07:35:50;101025.13;;;7.68;100.00
76108;BME280;64834;52.516;10.528;2024-02-21T07:38:16;101020.00;;;7.69;100.00
76108;BME280;64834;52.516;10.528;2024-02-21T07:40:44;101021.91;;;7.72;100.00
76108;BME280;64834;52.516;10.528;2024-02-21T07:43:10;101026.66;;;7.77;100.00
76108;BME280;64834;52.516;10.528;2024-02-21T07:45:35;101026.78;;;7.79;100.00
76108;BME280;64834;52.516;10.528;2024-02-21T07:48:01;101026.44;;;7.86;100.00
76108;BME280;64834;52.516;10.528;2024-02-21T07:50:26;101036.16;;;7.89;100.00
76108;BME280;64834;52.516;10.528;2024-02-21T07:52:51;101031.97;;;7.91;100.00
76108;BME280;64834;52.516;10.528;2024-02-21T07:55:17;101043.41;;;7.93;100.00
76108;BME280;64834;52.516;10.528;2024-02-21T07:57:42;101036.38;;;7.92;100.00
76108;BME280;64834;52.516;10.528;2024-02-21T08:00:08;101034.69;;;7.92;100.00
76108;BME280;64834;52.516;10.528;2024-02-21T08:02:42;101034.00;;;7.95;100.00
76108;BME280;64834;52.516;10.528;2024-02-21T08:05:09;101029.13;;;7.99;100.00
76108;BME280;64834;52.516;10.528;2024-02-21T08:07:34;101039.56;;;7.99;100.00
76108;BME280;64834;52.516;10.528;2024-02-21T08:09:59;101042.72;;;7.95;100.00
76108;BME280;64834;52.516;10.528;2024-02-21T08:12:24;101042.72;;;7.95;100.00
76108;BME280;64834;52.516;10.528;2024-02-21T08:14:50;101038.84;;;8.02;100.00
76108;BME280;64834;52.516;10.528;2024-02-21T08:17:15;101038.66;;;7.99;100.00
76108;BME280;64834;52.516;10.528;2024-02-21T08:19:40;101031.59;;;7.98;100.00
76108;BME280;64834;52.516;10.528;2024-02-21T08:22:06;101036.47;;;8.05;100.00
76108;BME280;64834;52.516;10.528;2024-02-21T08:24:32;101031.13;;;8.03;100.00
76108;BME280;64834;52.516;10.528;2024-02-21T08:26:57;101033.28;;;8.09;100.00
76108;BME280;64834;52.516;10.528;2024-02-21T08:29:22;101020.66;;;8.15;100.00
76108;BME280;64834;52.516;10.528;2024-02-21T08:31:48;101021.47;;;8.14;100.00
76108;BME280;64834;52.516;10.528;2024-02-21T08:34:13;101022.72;;;8.19;100.00
76108;BME280;64834;52.516;10.528;2024-02-21T08:36:38;101015.22;;;8.24;100.00
76108;BME280;64834;52.516;10.528;2024-02-21T08:39:04;101016.88;;;8.23;100.00
76108;BME280;64834;52.516;10.528;2024-02-21T08:41:33;101028.53;;;8.28;100.00
76108;BME280;64834;52.516;10.528;2024-02-21T08:43:59;101007.41;;;8.24;100.00
76108;BME280;64834;52.516;10.528;2024-02-21T08:46:25;101004.28;;;8.29;100.00
76108;BME280;64834;52.516;10.528;2024-02-21T08:48:52;101007.13;;;8.32;100.00
76108;BME280;64834;52.516;10.528;2024-02-21T08:51:17;101004.97;;;8.38;100.00
76108;BME280;64834;52.516;10.528;2024-02-21T08:53:46;101009.81;;;8.34;100.00
76108;BME280;64834;52.516;10.528;2024-02-21T08:56:12;101005.88;;;8.39;100.00
76108;BME280;64834;52.516;10.528;2024-02-21T08:58:39;101000.06;;;8.43;100.00
76108;BME280;64834;52.516;10.528;2024-02-21T09:01:06;100996.75;;;8.46;100.00
76108;BME280;64834;52.516;10.528;2024-02-21T09:03:32;101004.59;;;8.46;100.00
76108;BME280;64834;52.516;10.528;2024-02-21T09:05:59;100999.69;;;8.50;100.00
76108;BME280;64834;52.516;10.528;2024-02-21T09:08:24;101000.91;;;8.55;100.00
76108;BME280;64834;52.516;10.528;2024-02-21T09:10:50;100997.75;;;8.48;100.00
76108;BME280;64834;52.516;10.528;2024-02-21T09:13:15;101008.63;;;8.54;100.00
76108;BME280;64834;52.516;10.528;2024-02-21T09:15:40;100998.19;;;8.54;100.00
76108;BME280;64834;52.516;10.528;2024-02-21T09:18:06;100993.28;;;8.58;100.00
76108;BME280;64834;52.516;10.528;2024-02-21T09:20:31;100992.47;;;8.59;100.00
76108;BME280;64834;52.516;10.528;2024-02-21T09:22:56;100996.41;;;8.66;100.00
76108;BME280;64834;52.516;10.528;2024-02-21T09:25:22;100995.72;;;8.69;100.00
76108;BME280;64834;52.516;10.528;2024-02-21T09:27:47;100998.63;;;8.73;100.00
76108;BME280;64834;52.516;10.528;2024-02-21T09:30:12;100996.25;;;8.76;100.00
76108;BME280;64834;52.516;10.528;2024-02-21T09:32:38;100996.75;;;8.84;100.00
76108;BME280;64834;52.516;10.528;2024-02-21T09:35:04;100994.72;;;8.80;100.00
76108;BME280;64834;52.516;10.528;2024-02-21T09:37:30;100991.44;;;8.82;100.00
76108;BME280;64834;52.516;10.528;2024-02-21T09:39:56;100988.91;;;8.84;100.00
76108;BME280;64834;52.516;10.528;2024-02-21T09:42:21;100987.94;;;8.95;100.00
76108;BME280;64834;52.516;10.528;2024-02-21T09:44:50;100995.03;;;8.84;100.00
76108;BME280;64834;52.516;10.528;2024-02-21T09:47:19;100992.25;;;8.95;100.00
76108;BME280;64834;52.516;10.528;2024-02-21T09:49:47;100982.50;;;8.92;100.00
76108;BME280;64834;52.516;10.528;2024-02-21T09:52:13;100994.47;;;8.88;100.00
76108;BME280;64834;52.516;10.528;2024-02-21T09:54:40;100989.97;;;8.99;100.00
76108;BME280;64834;52.516;10.528;2024-02-21T09:57:07;101003.41;;;9.05;100.00
76108;BME280;64834;52.516;10.528;2024-02-21T09:59:33;100993.38;;;9.11;100.00
76108;BME280;64834;52.516;10.528;2024-02-21T10:01:58;100990.66;;;9.10;100.00
76108;BME280;64834;52.516;10.528;2024-02-21T10:04:27;100988.25;;;9.13;100.00
76108;BME280;64834;52.516;10.528;2024-02-21T10:06:53;100963.63;;;9.09;99.17
76108;BME280;64834;52.516;10.528;2024-02-21T10:09:26;100990.47;;;9.07;99.66
76108;BME280;64834;52.516;10.528;2024-02-21T10:12:11;100978.22;;;9.32;99.90
76108;BME280;64834;52.516;10.528;2024-02-21T10:14:37;100982.59;;;9.46;99.36
76108;BME280;64834;52.516;10.528;2024-02-21T10:17:02;100971.16;;;9.58;98.54
76108;BME280;64834;52.516;10.528;2024-02-21T10:19:30;100962.72;;;9.62;96.80
76108;BME280;64834;52.516;10.528;2024-02-21T10:22:00;100966.91;;;9.60;96.40
76108;BME280;64834;52.516;10.528;2024-02-21T10:24:26;100956.66;;;9.63;96.20
76108;BME280;64834;52.516;10.528;2024-02-21T10:27:01;100950.78;;;9.80;95.37
76108;BME280;64834;52.516;10.528;2024-02-21T10:29:27;100945.16;;;9.87;94.31
76108;BME280;64834;52.516;10.528;2024-02-21T10:31:52;100947.50;;;9.97;93.80
76108;BME280;64834;52.516;10.528;2024-02-21T10:34:17;100942.34;;;10.12;93.39
76108;BME280;64834;52.516;10.528;2024-02-21T10:36:43;100948.16;;;10.08;93.18
76108;BME280;64834;52.516;10.528;2024-02-21T10:39:08;100938.91;;;10.13;92.57
76108;BME280;64834;52.516;10.528;2024-02-21T10:41:34;100916.41;;;10.02;89.21
76108;BME280;64834;52.516;10.528;2024-02-21T10:44:02;100940.13;;;10.05;90.63
76108;BME280;64834;52.516;10.528;2024-02-21T10:46:31;100923.63;;;10.34;91.29
76108;BME280;64834;52.516;10.528;2024-02-21T10:49:04;100927.75;;;10.31;89.20
76108;BME280;64834;52.516;10.528;2024-02-21T10:51:33;100921.00;;;10.34;86.71
76108;BME280;64834;52.516;10.528;2024-02-21T10:54:24;100916.44;;;10.45;86.18
76108;BME280;64834;52.516;10.528;2024-02-21T10:56:56;100908.38;;;10.42;84.86
76108;BME280;64834;52.516;10.528;2024-02-21T10:59:23;100900.91;;;10.48;83.56
76108;BME280;64834;52.516;10.528;2024-02-21T11:01:51;100887.72;;;10.46;83.91
76108;BME280;64834;52.516;10.528;2024-02-21T11:04:17;100888.84;;;10.50;82.41
76108;BME280;64834;52.516;10.528;2024-02-21T11:06:43;100888.19;;;10.39;81.27
76108;BME280;64834;52.516;10.528;2024-02-21T11:09:10;100892.84;;;10.30;80.65
76108;BME280;64834;52.516;10.528;2024-02-21T11:11:37;100876.31;;;10.16;81.48
76108;BME280;64834;52.516;10.528;2024-02-21T11:14:07;100881.81;;;10.21;80.72
76108;BME280;64834;52.516;10.528;2024-02-21T11:16:40;100881.00;;;10.22;81.65
76108;BME280;64834;52.516;10.528;2024-02-21T11:19:18;100869.28;;;10.00;81.15
76108;BME280;64834;52.516;10.528;2024-02-21T11:21:44;100879.97;;;9.90;81.88
76108;BME280;64834;52.516;10.528;2024-02-21T11:24:09;100872.34;;;9.93;81.30
76108;BME280;64834;52.516;10.528;2024-02-21T11:26:37;100862.03;;;9.96;81.30
76108;BME280;64834;52.516;10.528;2024-02-21T11:29:02;100871.69;;;9.97;80.74
76108;BME280;64834;52.516;10.528;2024-02-21T11:31:44;100864.56;;;9.95;79.92
76108;BME280;64834;52.516;10.528;2024-02-21T11:34:17;100847.25;;;10.12;80.62
76108;BME280;64834;52.516;10.528;2024-02-21T11:36:50;100849.88;;;10.12;80.75
76108;BME280;64834;52.516;10.528;2024-02-21T11:39:23;100845.22;;;10.21;80.01
76108;BME280;64834;52.516;10.528;2024-02-21T11:42:06;100833.41;;;10.13;79.87
76108;BME280;64834;52.516;10.528;2024-02-21T11:44:33;100831.78;;;10.15;80.62
76108;BME280;64834;52.516;10.528;2024-02-21T11:46:59;100824.66;;;10.12;79.32
76108;BME280;64834;52.516;10.528;2024-02-21T11:49:25;100814.66;;;10.35;80.24
76108;BME280;64834;52.516;10.528;2024-02-21T11:52:01;100817.38;;;10.36;78.82
76108;BME280;64834;52.516;10.528;2024-02-21T11:54:33;100817.34;;;10.21;78.46
76108;BME280;64834;52.516;10.528;2024-02-21T11:56:58;100807.44;;;10.31;80.25
76108;BME280;64834;52.516;10.528;2024-02-21T11:59:24;100799.50;;;10.29;79.51
76108;BME280;64834;52.516;10.528;2024-02-21T12:01:49;100789.59;;;10.23;79.30
76108;BME280;64834;52.516;10.528;2024-02-21T12:04:17;100789.78;;;10.26;80.65
76108;BME280;64834;52.516;10.528;2024-02-21T12:06:45;100792.56;;;10.30;79.80
76108;BME280;64834;52.516;10.528;2024-02-21T12:09:16;100785.47;;;10.27;79.55
76108;BME280;64834;52.516;10.528;2024-02-21T12:11:42;100792.09;;;10.37;80.86
76108;BME280;64834;52.516;10.528;2024-02-21T12:14:07;100785.53;;;10.43;79.76
76108;BME280;64834;52.516;10.528;2024-02-21T12:16:34;100775.25;;;10.46;78.48
76108;BME280;64834;52.516;10.528;2024-02-21T12:19:00;100776.53;;;10.38;78.01
76108;BME280;64834;52.516;10.528;2024-02-21T12:21:32;100770.63;;;10.42;78.83
76108;BME280;64834;52.516;10.528;2024-02-21T12:24:11;100770.28;;;10.36;78.71
76108;BME280;64834;52.516;10.528;2024-02-21T12:26:36;100766.69;;;10.34;78.27
76108;BME280;64834;52.516;10.528;2024-02-21T12:29:02;100757.56;;;10.42;77.95
76108;BME280;64834;52.516;10.528;2024-02-21T12:31:27;100757.56;;;10.42;77.85
76108;BME280;64834;52.516;10.528;2024-02-21T12:33:53;100745.13;;;10.38;77.18
76108;BME280;64834;52.516;10.528;2024-02-21T12:36:18;100745.38;;;10.43;77.41
76108;BME280;64834;52.516;10.528;2024-02-21T12:38:44;100750.25;;;10.51;78.37
76108;BME280;64834;52.516;10.528;2024-02-21T12:41:09;100741.66;;;10.54;77.56
76108;BME280;64834;52.516;10.528;2024-02-21T12:43:34;100734.88;;;10.58;78.97
76108;BME280;64834;52.516;10.528;2024-02-21T12:46:00;100730.91;;;10.49;77.91
76108;BME280;64834;52.516;10.528;2024-02-21T12:48:25;100725.88;;;10.52;77.78
76108;BME280;64834;52.516;10.528;2024-02-21T12:50:51;100718.22;;;10.72;79.18
76108;BME280;64834;52.516;10.528;2024-02-21T12:53:17;100726.72;;;10.68;75.83
76108;BME280;64834;52.516;10.528;2024-02-21T12:55:44;100721.72;;;10.56;75.03
76108;BME280;64834;52.516;10.528;2024-02-21T12:58:09;100721.53;;;10.53;74.01